Latest Weather Observations for Archerfield

IDQ60901

Issued at 9:01 pm EST Saturday 23 February 2019 (issued every 10 minutes, with the page automatically refreshed every 10 minutes)

About weather observations | Map of Brisbane area stations | Latest observations for Brisbane area | Other Formats
Station Details ID: 040211 Name: ARCHERFIELD AIRPORT Lat: -27.57 Lon: 153.01 Height: 12.5 m
Data from the previous 72 hours. | See also: Recent months at Archerfield
Date/Time
EST
Temp
°C
App
Temp
°C
Dew
Point
°C
Rel
Hum
%
Delta-T
°C
Wind Press
QNH
hPa
Press
MSL
hPa
Rain since
9am
mm
Dir  Spd
km/h
Gust
km/h
Spd
kts
Gust
kts
23/09:00pm 24.2 21.6 13.1 50 6.4 SSE 19 26 10 14 1017.6 1017.5 0.0
23/08:30pm 23.8 23.1 13.1 51 6.2 SSW 9 13 5 7 1017.3 1017.2 0.0
23/08:00pm 24.4 22.8 12.7 48 6.7 S 13 19 7 10 1016.8 1016.7 0.0
23/07:30pm 25.1 22.1 12.7 46 7.2 SSE 20 28 11 15 1016.7 1016.6 0.0
23/07:00pm 25.4 21.4 11.9 43 7.7 SSE 24 33 13 18 1016.1 1016.0 0.0
23/06:30pm 26.5 21.4 10.6 37 8.9 SSE 28 46 15 25 1015.7 1015.6 0.0
23/06:21pm 26.6 21.4 10.3 36 9.1 SSE 28 46 15 25 1015.5 1015.4 0.0
23/06:00pm 26.9 20.9 10.2 35 9.3 S 32 43 17 23 1015.1 1015.0 0.0
23/05:30pm 27.6 21.8 10.8 35 9.5 SSE 32 44 17 24 1014.7 1014.6 0.0
23/05:00pm 28.8 23.3 10.5 32 10.4 SSE 30 46 16 25 1014.3 1014.2 0.0
23/04:30pm 28.4 22.6 11.5 35 9.7 SSE 33 46 18 25 1013.8 1013.7 0.0
23/04:18pm 28.8 23.5 11.4 34 10.0 SSE 30 48 16 26 1013.5 1013.4 0.0
23/04:00pm 30.2 24.9 11.2 31 11.0 SSE 30 39 16 21 1013.3 1013.2 0.0
23/03:30pm 31.3 26.1 10.1 27 12.1 S 28 43 15 23 1013.0 1012.9 0.0
23/03:18pm 30.6 24.3 8.9 26 12.1 S 32 52 17 28 1012.9 1012.8 0.0
23/03:00pm 30.2 24.3 9.1 27 11.8 SSE 30 44 16 24 1012.7 1012.6 0.0
23/02:30pm 30.0 26.2 11.0 31 10.9 S 22 32 12 17 1012.8 1012.7 0.0
23/02:00pm 30.9 26.1 11.8 31 11.2 S 28 43 15 23 1012.9 1012.8 0.0
23/01:30pm 29.9 25.1 12.8 35 10.1 S 30 43 16 23 1013.2 1013.1 0.0
23/01:00pm 30.0 25.1 12.4 34 10.3 S 30 44 16 24 1013.2 1013.1 0.0
23/12:30pm 28.9 23.9 12.3 36 9.7 SSE 30 43 16 23 1013.2 1013.1 0.0
23/12:00pm 28.5 23.9 13.6 40 8.9 SSW 30 43 16 23 1013.3 1013.2 0.0
23/11:34am 29.1 23.9 12.9 37 9.6 SSE 32 50 17 27 1013.3 1013.2 0.0
23/11:30am 30.6 25.5 13.8 35 10.1 SSE 33 50 18 27 1013.3 1013.2 0.0
23/11:00am 29.2 25.0 13.4 38 9.4 SSE 28 43 15 23 1013.4 1013.3 0.0
23/10:30am 30.0 26.1 14.5 38 9.4 SSE 28 39 15 21 1013.7 1013.6 0.0
23/10:00am 29.1 24.4 14.9 42 8.6 S 33 43 18 23 1013.6 1013.5 0.0
23/09:30am 27.6 21.7 12.4 39 8.8 S 35 46 19 25 1013.4 1013.3 0.0
23/09:20am 28.4 23.8 12.3 37 9.4 SSE 28 46 15 25 1013.3 1013.2 0.0
23/09:00am 26.6 24.3 14.0 46 7.5 S 19 32 10 17 1013.3 1013.2 0.0
23/08:30am 25.2 23.3 14.3 50 6.5 SSW 17 26 9 14 1013.4 1013.3 0.0
23/08:00am 24.6 22.5 15.2 55 5.6 SSW 20 24 11 13 1013.3 1013.2 0.0
23/07:30am 22.9 20.2 14.7 60 4.9 SSW 22 32 12 17 1013.1 1013.0 0.0
23/07:00am 22.5 19.4 14.6 61 4.7 SSW 24 33 13 18 1012.7 1012.6 0.0
23/06:30am 22.3 19.9 14.4 61 4.6 SSW 20 28 11 15 1012.3 1012.2 0.0
23/06:00am 21.5 19.6 14.2 63 4.3 SSW 17 24 9 13 1012.1 1012.0 0.0
23/05:30am 21.2 19.1 13.6 62 4.4 SW 17 22 9 12 1011.8 1011.7 0.0
23/05:00am 21.2 19.1 13.6 62 4.4 SSW 17 20 9 11 1011.5 1011.4 0.0
23/04:30am 21.5 19.9 13.9 62 4.4 S 15 20 8 11 1011.6 1011.5 0.0
23/04:00am 21.5 18.9 13.9 62 4.4 SSW 20 26 11 14 1011.4 1011.3 0.0
23/03:30am 21.6 17.9 13.8 61 4.5 SSW 26 37 14 20 1010.9 1010.8 0.0
23/03:00am 22.2 18.3 13.3 57 5.1 SSW 26 37 14 20 1011.3 1011.2 0.0
23/02:30am 22.3 19.2 13.4 57 5.1 SSW 22 32 12 17 1011.3 1011.2 0.0
23/02:00am 22.4 18.6 13.5 57 5.2 SSW 26 37 14 20 1011.4 1011.3 0.0
23/01:30am 22.3 18.5 13.6 58 5.0 SSW 26 37 14 20 1011.4 1011.3 0.0
23/01:00am 22.3 19.3 13.6 58 5.0 SSW 22 30 12 16 1011.5 1011.4 0.0
23/12:30am 22.4 19.3 13.5 57 5.1 SSW 22 30 12 16 1011.7 1011.6 0.0
23/12:00am 22.7 18.3 12.9 54 5.6 SW 28 39 15 21 1011.6 1011.5 0.0
 
Date/Time
EST
Temp
°C
App
Temp
°C
Dew
Point
°C
Rel
Hum
%
Delta-T
°C
Wind Press
QNH
hPa
Press
MSL
hPa
Rain since
9am
mm
Dir  Spd
km/h
Gust
km/h
Spd
kts
Gust
kts
22/11:30pm 22.9 19.1 12.5 52 5.9 SSW 24 35 13 19 1012.0 1011.9 0.0
22/11:00pm 23.1 18.5 12.4 51 6.1 SSW 28 39 15 21 1012.1 1012.0 0.0
22/10:30pm 23.4 20.3 12.1 49 6.4 SSW 20 30 11 16 1012.3 1012.2 0.0
22/10:00pm 23.9 18.7 11.6 46 6.9 SSW 30 46 16 25 1012.3 1012.2 0.0
22/09:55pm 23.9 19.0 11.3 45 7.1 SSW 28 46 15 25 1012.4 1012.3 0.0
22/09:30pm 24.0 20.4 10.7 43 7.4 SSW 20 32 11 17 1012.5 1012.4 0.0
22/09:00pm 24.2 19.8 10.5 42 7.6 SSW 24 41 13 22 1012.4 1012.3 0.0
22/08:30pm 24.7 20.0 10.6 41 7.8 SSW 26 35 14 19 1012.2 1012.1 0.0
22/08:00pm 24.7 21.0 11.6 44 7.4 SSW 22 33 12 18 1011.7 1011.6 0.0
22/07:30pm 25.3 21.6 11.5 42 7.8 SSW 22 39 12 21 1011.5 1011.4 0.0
22/07:00pm 25.7 22.0 11.5 41 8.1 S 22 32 12 17 1011.0 1010.9 0.0
22/06:30pm 26.5 21.6 11.4 39 8.6 S 28 39 15 21 1010.7 1010.6 0.0
22/06:00pm 27.5 22.7 11.5 37 9.2 S 28 50 15 27 1010.0 1009.9 0.0
22/05:30pm 28.3 22.5 10.9 34 9.9 S 32 44 17 24 1009.3 1009.2 0.0
22/05:00pm 28.4 24.1 11.9 36 9.6 S 26 43 14 23 1009.2 1009.1 0.0
22/04:30pm 28.1 22.9 12.8 38 9.0 S 32 48 17 26 1009.0 1008.9 0.0
22/04:00pm 28.3 23.2 13.8 41 8.7 SSE 33 48 18 26 1008.9 1008.8 0.0
22/03:39pm 29.8 25.3 12.7 35 10.1 SSE 28 46 15 25 1008.6 1008.5 0.0
22/03:30pm 29.7 24.2 12.6 35 10.1 S 33 50 18 27 1008.4 1008.3 0.0
22/03:04pm 29.4 23.6 11.5 33 10.3 S 33 52 18 28 1008.4 1008.3 0.0
22/03:00pm 29.4 23.1 11.0 32 10.6 S 35 52 19 28 1008.3 1008.2 0.0
22/02:45pm 30.5 24.1 11.9 31 10.9 S 37 56 20 30 1008.1 1008.0 0.0
22/02:30pm 30.9 25.5 12.8 33 10.7 SSW 33 46 18 25 1007.9 1007.8 0.0
22/02:00pm 30.0 24.6 16.1 43 8.7 S 39 59 21 32 1008.2 1008.1 0.0
22/01:52pm 29.6 25.0 14.6 40 9.1 S 32 56 17 30 1008.2 1008.1 0.0
22/01:30pm 28.5 24.7 15.8 46 7.8 S 30 44 16 24 1008.6 1008.5 0.0
22/01:00pm 27.7 23.9 15.7 48 7.4 S 30 43 16 23 1008.7 1008.6 0.0
22/12:30pm 28.5 24.6 15.4 45 8.0 SSW 30 50 16 27 1008.5 1008.4 0.0
22/12:02pm 30.8 25.6 11.7 31 11.1 SSE 30 48 16 26 1008.4 1008.3 0.0
22/12:00pm 32.4 28.2 13.6 32 11.4 SSE 28 43 15 23 1008.3 1008.2 0.0
22/11:35am 30.7 25.2 12.6 33 10.7 SSE 33 52 18 28 1008.8 1008.7 0.0
22/11:30am 30.7 25.9 13.9 36 10.1 SSE 32 44 17 24 1009.0 1008.9 0.0
22/11:00am 28.9 23.6 14.3 40 8.8 SSE 35 65 19 35 1009.1 1009.0 0.0
22/10:35am 29.3 23.0 14.7 41 8.9 S 41 59 22 32 1009.0 1008.9 0.0
22/10:30am 29.0 22.2 14.4 41 8.8 S 43 59 23 32 1009.2 1009.1 0.0
22/10:04am 29.9 26.1 16.7 45 8.3 SSE 32 50 17 27 1009.3 1009.2 0.0
22/10:00am 28.7 23.9 15.6 45 8.1 SSE 35 52 19 28 1009.2 1009.1 0.0
22/09:37am 29.3 23.8 15.8 44 8.3 SSE 39 59 21 32 1009.2 1009.1 0.0
22/09:30am 28.9 24.2 15.8 45 8.1 S 35 52 19 28 1009.2 1009.1 0.0
22/09:00am 27.4 22.6 15.7 48 7.2 S 35 50 19 27 1009.2 1009.1 0.0
22/08:47am 27.8 24.3 16.4 50 7.1 SSE 30 48 16 26 1009.1 1009.0 0.0
22/08:30am 27.3 23.5 16.6 52 6.6 SSE 32 46 17 25 1009.1 1009.0 0.0
22/08:15am 27.5 23.0 16.5 51 6.8 S 35 54 19 29 1008.8 1008.7 0.0
22/08:00am 27.5 24.8 16.5 51 6.8 SSE 26 39 14 21 1008.8 1008.7 0.0
22/07:32am 26.9 23.3 17.1 55 6.1 SSE 32 50 17 27 1008.8 1008.7 0.0
22/07:30am 26.4 22.4 16.6 55 6.1 SSE 33 50 18 27 1008.7 1008.6 0.0
22/07:24am 26.1 23.4 16.6 55 5.9 S 26 46 14 25 1008.7 1008.6 0.0
22/07:00am 24.7 24.5 18.4 68 4.0 S 17 26 9 14 1008.7 1008.6 0.0
22/06:30am 23.5 24.3 19.0 76 2.9 SSW 13 17 7 9 1008.6 1008.5 0.0
22/06:00am 22.9 23.7 19.1 79 2.4 SSW 13 17 7 9 1008.4 1008.3 0.0
22/05:30am 22.6 23.9 19.2 81 2.2 SW 11 13 6 7 1008.1 1008.0 0.0
22/05:00am 22.7 24.0 19.3 81 2.2 SSW 11 17 6 9 1007.9 1007.8 0.0
22/04:30am 23.2 24.3 19.6 80 2.3 SSW 13 22 7 12 1007.6 1007.5 0.0
22/04:00am 23.1 23.9 19.9 82 2.1 SSW 15 20 8 11 1007.4 1007.3 0.0
22/03:30am 23.0 24.3 20.1 84 1.9 SSW 13 17 7 9 1007.5 1007.4 0.0
22/03:00am 22.6 24.8 20.3 87 1.5 SSW 9 13 5 7 1007.7 1007.6 0.0
22/02:30am 22.7 24.1 20.4 87 1.5 SSW 13 19 7 10 1008.2 1008.1 0.0
22/02:00am 23.1 23.3 20.2 84 1.9 S 19 28 10 15 1008.0 1007.9 0.0
22/01:30am 23.0 21.4 20.1 84 1.9 S 28 43 15 23 1008.3 1008.2 0.0
22/01:25am 23.2 21.6 20.0 82 2.1 S 28 43 15 23 1008.4 1008.3 0.0
22/01:00am 25.2 24.9 19.1 69 3.9 SSW 19 24 10 13 1008.4 1008.3 0.0
22/12:30am 24.9 24.4 18.6 68 4.0 S 19 22 10 12 1008.4 1008.3 0.0
22/12:00am 25.4 25.2 17.6 62 4.9 SSW 15 19 8 10 1008.6 1008.5 0.0
 
Date/Time
EST
Temp
°C
App
Temp
°C
Dew
Point
°C
Rel
Hum
%
Delta-T
°C
Wind Press
QNH
hPa
Press
MSL
hPa
Rain since
9am
mm
Dir  Spd
km/h
Gust
km/h
Spd
kts
Gust
kts
21/11:30pm 25.9 25.8 17.8 61 5.1 SSE 15 20 8 11 1008.7 1008.6 0.0
21/11:00pm 26.2 26.2 18.1 61 5.1 SSE 15 22 8 12 1008.9 1008.8 0.0
21/10:30pm 25.8 26.4 17.7 61 5.1 S 11 15 6 8 1008.9 1008.8 0.0
21/10:00pm 26.4 25.9 17.7 58 5.5 SSE 17 24 9 13 1009.2 1009.1 0.0
21/09:30pm 26.6 25.8 17.9 59 5.5 SSE 19 30 10 16 1009.4 1009.3 0.0
21/09:00pm 26.8 26.3 17.8 57 5.7 SSE 17 24 9 13 1009.2 1009.1 0.0
21/08:30pm 26.9 25.9 17.9 57 5.7 SSE 20 30 11 16 1008.9 1008.8 0.0
21/08:00pm 27.2 25.9 18.2 58 5.7 SE 22 30 12 16 1008.7 1008.6 0.0
21/07:30pm 27.4 26.0 18.7 59 5.6 ESE 24 32 13 17 1008.3 1008.2 0.0
21/07:00pm 27.5 26.2 19.0 59 5.5 ESE 24 35 13 19 1007.8 1007.7 0.0
21/06:30pm 27.8 25.6 19.6 61 5.3 ESE 30 41 16 22 1007.2 1007.1 0.0
21/06:00pm 28.4 24.8 19.3 57 5.9 ESE 37 54 20 29 1006.6 1006.5 0.0
21/05:53pm 28.5 25.7 19.4 57 5.9 ESE 33 54 18 29 1006.5 1006.4 0.0
21/05:30pm 29.3 26.2 19.6 56 6.3 ESE 35 50 19 27 1006.2 1006.1 0.0
21/05:00pm 30.3 27.7 19.6 52 7.0 ESE 32 41 17 22 1005.9 1005.8 0.0
21/04:30pm 31.4 28.9 19.7 49 7.7 E 32 43 17 23 1005.6 1005.5 0.0
21/04:00pm 31.8 29.2 19.4 47 8.2 ESE 32 44 17 24 1005.5 1005.4 0.0
21/03:30pm 32.2 30.7 19.5 47 8.3 ESE 26 35 14 19 1005.5 1005.4 0.0
21/03:00pm 32.3 30.3 19.2 46 8.6 ESE 28 39 15 21 1005.6 1005.5 0.0
21/02:30pm 32.8 29.6 18.2 42 9.4 SE 32 43 17 23 1006.0 1005.9 0.0
21/02:02pm 32.3 30.1 19.5 46 8.4 SE 30 48 16 26 1006.4 1006.3 0.0
21/02:00pm 33.2 31.2 20.0 45 8.8 SE 30 44 16 24 1006.5 1006.4 0.0
21/01:30pm 31.9 29.4 20.2 50 7.8 SE 33 46 18 25 1007.1 1007.0 0.0
21/01:00pm 33.8 31.5 20.2 44 9.1 SSE 32 43 17 23 1007.3 1007.2 0.0
21/12:30pm 31.1 28.6 20.1 52 7.3 ESE 33 43 18 23 1007.6 1007.5 0.0
21/12:00pm 30.7 28.3 20.3 53 6.9 ESE 33 46 18 25 1008.0 1007.9 0.0
21/11:30am 31.7 30.8 20.6 51 7.4 ESE 26 43 14 23 1007.8 1007.7 0.0
21/11:00am 31.6 29.0 19.6 49 7.9 ESE 32 41 17 22 1008.2 1008.1 0.0
21/10:30am 31.1 30.3 18.5 47 8.1 SSE 20 32 11 17 1008.2 1008.1 0.0
21/10:00am 30.9 29.4 18.6 48 8.0 SE 24 32 13 17 1008.2 1008.1 0.0
21/09:30am 30.8 29.0 18.8 48 7.8 SE 26 39 14 21 1008.3 1008.2 0.0
21/09:00am 28.8 29.3 20.0 59 5.8 SSE 17 28 9 15 1008.4 1008.3 0.0
21/08:30am 28.0 29.0 19.5 60 5.5 S 13 22 7 12 1008.3 1008.2 0.0
21/08:00am 27.5 28.7 19.8 63 5.0 S 13 19 7 10 1008.1 1008.0 0.0
21/07:30am 27.0 28.2 19.9 65 4.6 S 13 19 7 10 1008.1 1008.0 0.0
21/07:00am 25.8 27.7 19.7 69 4.0 SSW 9 13 5 7 1007.9 1007.8 0.0
21/06:30am 24.9 25.8 19.3 71 3.6 SSW 13 17 7 9 1007.5 1007.4 0.0
21/06:00am 24.3 26.1 19.6 75 3.0 SSW 9 11 5 6 1007.3 1007.2 0.0
21/05:30am 24.6 26.5 19.7 74 3.2 S 9 11 5 6 1006.9 1006.8 0.0
21/05:00am 24.4 26.7 19.9 76 2.9 SSW 7 9 4 5 1006.7 1006.6 0.0
21/04:30am 24.5 26.4 19.8 75 3.0 S 9 11 5 6 1006.4 1006.3 0.0
21/04:00am 24.8 26.7 19.8 74 3.2 SE 9 11 5 6 1006.1 1006.0 0.0
21/03:30am 25.3 27.3 19.9 72 3.5 SE 9 13 5 7 1006.1 1006.0 0.0
21/03:00am 25.8 27.8 19.9 70 3.8 SE 9 11 5 6 1006.1 1006.0 0.0
21/02:30am 25.9 27.1 20.0 70 3.8 ESE 13 19 7 10 1006.1 1006.0 0.0
21/02:00am 25.8 26.1 19.7 69 4.0 E 17 22 9 12 1006.2 1006.1 0.0
21/01:30am 25.7 26.8 19.6 69 3.9 ESE 13 20 7 11 1006.8 1006.7 0.0
21/01:00am 25.6 27.6 19.9 70 3.7 S 9 11 5 6 1007.6 1007.5 0.0
21/12:30am 25.7 27.3 20.0 71 3.7 SSE 11 13 6 7 1008.0 1007.9 0.0
21/12:00am 25.5 26.9 20.3 73 3.4 SE 13 17 7 9 1008.4 1008.3 0.0
 
Date/Time
EST
Temp
°C
App
Temp
°C
Dew
Point
°C
Rel
Hum
%
Delta-T
°C
Wind Press
QNH
hPa
Press
MSL
hPa
Rain since
9am
mm
Dir  Spd
km/h
Gust
km/h
Spd
kts
Gust
kts
20/11:30pm 25.8 27.2 21.0 75 3.2 S 15 20 8 11 1009.2 1009.1 0.0
20/11:00pm 26.2 27.8 21.4 75 3.2 S 15 19 8 10 1009.0 1008.9 0.0
20/10:30pm 26.2 27.6 21.8 77 2.9 SE 17 24 9 13 1008.6 1008.5 0.0
20/10:00pm 25.9 27.7 21.8 78 2.7 SE 15 20 8 11 1008.3 1008.2 0.0
20/09:30pm 26.2 27.0 21.4 75 3.2 E 19 24 10 13 1007.8 1007.7 0.0

Latest Capital City Observations: Canberra | Sydney | Melbourne | Brisbane | Adelaide | Perth | Hobart | Darwin

Other formats

Comma delimited format used in spreadsheet applications
http://www.bom.gov.au/fwo/IDQ60901/IDQ60901.94575.axf

JavaScript Object Notation format (JSON) in row-major order
http://www.bom.gov.au/fwo/IDQ60901/IDQ60901.94575.json

Data quality

Most of these data are generated automatically and are frequently updated. Quality checks on data are not normally performed. It is possible for incorrect values to appear. Refer to information at About Latest Weather Observations and please check the disclaimer before using these data.